Aérodrome :
LOGIN :

S'inscrire | Disclaimer

   EN    FR    IT 

 










Légende :    VFR   VFR Marginal   IFR   IFR Intensif   IFR Très Intensif
Visi : 
Plafond : 
>= 8 km
>= 3000ft
5 à 8 km
1000 à 3000 ft
1500m à 5 km
500 à 1000 ft
800 à 1500m
200 à 500 ft
< 800m
< 200 ft
Symboles :   Orages  Brouillard  Fortes neiges  Fortes précipitations  Vent > 20 kt
SIGMETs :   Divers  Orages  Givrage  Turbulence  Onde Orograph.  Cendres Volcan.







- Altitude de l'aérodrome : 915 ft
- Code IATA : LUG


LSZA - Lugano

DERNIER METAR :
  • 191820Z 34003KT 310V030 9999 FEW060 22/17 Q1013 NOSIG

METARs EXPIRÉS :
  • 191750Z 04004KT 350V090 9999 FEW060 24/16 Q1013 NOSIG
  • 191720Z 06005KT 360V100 9999 FEW060 26/15 Q1012 NOSIG
  • 191650Z 03007KT 360V090 CAVOK 26/17 Q1012 NOSIG
  • 191620Z 04006KT 9999 FEW050TCU FEW150 25/18 Q1012 NOSIG
  • 191550Z 03007KT 360V060 9999 FEW050TCU FEW150 27/19 Q1012 NOSIG

TAF TAF LSZA
Valide du 19 à 15h jusqu'au 20 à 00h UTC


191425Z 1915/1924 21004KT 9999 FEW050TCU SCT160
TEMPO 1915/1917 SHRA
PROB40
TEMPO 1915/1917 34015G30KT 4000 TSRA SCT050CB
BECMG 1916/1919 01015G30KT CAVOK
BECMG 1921/1924 01010KT
ATIS : +41 22 417 40 88
Pas de NOTAMs connus pour ce terrain.



MET'MAP, la Météo Aéronautique d'un coup d'oeil ! - Copyright ORBIFLY Décembre 2007 - Disclaimer

ORBIFLY MET'MAP TEAM :

Programmation & Développement : Alexandra Zaïnal
Conception & Développement : Baudouin d'Aumeries
Co-Programmation & Développement : Marc-Olivier Méhu
Soutien technique & logistique : Manuel Goepfert

Contact : metmap@orbifly.com




SOURCES & CREDITS :

   NOAA